Time;durP1;ratioP1;P1;durP2;ratioP2;P2;SDS_P1;SDS_P2;PMS_P1;PMS_P2;Temp;Humidity;BMP_temperature;BMP_pressure;BME280_temperature;BME280_humidity;BME280_pressure;Samples;Min_cycle;Max_cycle;Signal;HPM_P1;HPM_P2
2024/02/05 00:02:00;;;;;;;;;;;7.00;99.90;;;-146.41;100.00;57768.22;4978435;28;1910;-68
2024/02/05 00:04:27;;;;;;;;;;;7.00;99.90;;;-146.41;100.00;57768.22;4979653;28;1383;-68
2024/02/05 00:06:54;;;;;;;;;;;7.00;99.90;;;-146.41;100.00;57768.22;4977535;28;1441;-69
2024/02/05 00:09:21;;;;;;;;;;;6.90;99.90;;;-146.41;100.00;57768.22;4977647;28;3526;-68
2024/02/05 00:11:48;;;;;;;;;;;6.90;99.90;;;-146.41;100.00;57768.22;4980114;28;1136;-68
2024/02/05 00:14:14;;;;;;;;;;;7.00;99.90;;;-146.41;100.00;57768.22;4979724;28;1385;-68
2024/02/05 00:16:41;;;;;;;;;;;7.00;99.90;;;-146.41;100.00;57768.22;4982762;28;1382;-68
2024/02/05 00:19:08;;;;;;;;;;;6.90;99.90;;;-146.41;100.00;57768.22;4998012;28;1385;-68
2024/02/05 00:21:35;;;;;;;;;;;6.90;99.90;;;-146.41;100.00;57768.22;4981633;28;1989;-68
2024/02/05 00:24:03;;;;;;;;;;;7.00;99.90;;;-146.41;100.00;57768.22;4983186;28;2075;-68
2024/02/05 00:26:31;;;;;;;;;;;7.00;99.90;;;-146.41;100.00;57768.22;4984053;28;1481;-68
2024/02/05 00:28:58;;;;;;;;;;;7.00;99.90;;;-146.41;100.00;57768.22;4982310;28;1730;-68
2024/02/05 00:31:24;;;;;;;;;;;7.00;99.90;;;-146.41;100.00;57768.22;4982234;28;1472;-68
2024/02/05 00:33:51;;;;;;;;;;;7.00;99.90;;;-146.41;100.00;57768.22;4984333;28;1412;-68
2024/02/05 00:36:18;;;;;;;;;;;7.00;99.90;;;-146.41;100.00;57768.22;4984899;28;1384;-68
2024/02/05 00:38:45;;;;;;;;;;;7.00;99.90;;;-146.41;100.00;57768.22;5013982;28;2035;-67
2024/02/05 00:41:12;;;;;;;;;;;7.00;99.90;;;-146.41;100.00;57768.22;4983251;28;1999;-68
2024/02/05 00:43:39;;;;;;;;;;;7.00;99.90;;;-146.41;100.00;57768.22;4984384;28;1425;-69
2024/02/05 00:46:05;;;;;;;;;;;7.00;99.90;;;-146.41;100.00;57768.22;4981853;28;1460;-68
2024/02/05 00:48:33;;;;;;;;;;;6.90;99.90;;;-146.41;100.00;57768.22;4995323;28;1451;-68
2024/02/05 00:51:00;;;;;;;;;;;7.00;99.90;;;-146.41;100.00;57768.22;4997212;28;2016;-68
2024/02/05 00:53:26;;;;;;;;;;;7.00;99.90;;;-146.41;100.00;57768.22;4983384;28;1595;-68
2024/02/05 00:55:53;;;;;;;;;;;7.00;99.90;;;-146.41;100.00;57768.22;4983215;28;1588;-68
2024/02/05 00:58:20;;;;;;;;;;;7.00;99.90;;;-146.41;100.00;57768.22;4985880;28;1456;-68
2024/02/05 01:00:47;;;;;;;;;;;7.00;99.90;;;-146.41;100.00;57768.22;5000626;28;1456;-68
2024/02/05 01:03:14;;;;;;;;;;;7.00;99.90;;;-146.41;100.00;57768.22;4983462;28;1910;-68
2024/02/05 01:05:41;;;;;;;;;;;7.00;99.90;;;-146.41;100.00;57768.22;4998029;28;3232;-69
2024/02/05 01:08:08;;;;;;;;;;;7.00;99.90;;;-146.41;100.00;57768.22;4981313;28;2592;-67
2024/02/05 01:10:36;;;;;;;;;;;7.00;99.90;;;-146.41;100.00;57768.22;4980968;28;2614;-68
2024/02/05 01:13:04;;;;;;;;;;;7.00;99.90;;;-146.41;100.00;57768.22;4982932;28;1683;-68
2024/02/05 01:15:31;;;;;;;;;;;7.00;99.90;;;-146.41;100.00;57768.22;4984570;28;1688;-68
2024/02/05 01:17:58;;;;;;;;;;;7.00;99.90;;;-146.41;100.00;57768.22;5011760;28;1474;-69
2024/02/05 01:20:25;;;;;;;;;;;7.00;99.90;;;-146.41;100.00;57768.22;4983991;28;1464;-68
2024/02/05 01:22:52;;;;;;;;;;;6.90;99.90;;;-146.41;100.00;57768.22;4982651;28;1946;-68
2024/02/05 01:25:19;;;;;;;;;;;7.00;99.90;;;-146.41;100.00;57768.22;4981834;28;1568;-68
2024/02/05 01:27:47;;;;;;;;;;;7.00;99.90;;;-146.41;100.00;57768.22;4983160;28;1615;-68
2024/02/05 01:30:13;;;;;;;;;;;6.90;99.90;;;-146.41;100.00;57768.22;4980610;28;1541;-68
2024/02/05 01:32:41;;;;;;;;;;;7.00;99.90;;;-146.41;100.00;57768.22;4982050;28;1805;-68
2024/02/05 01:35:08;;;;;;;;;;;7.00;99.90;;;-146.41;100.00;57768.22;4983672;28;1417;-69
2024/02/05 01:37:35;;;;;;;;;;;7.00;99.90;;;-146.41;100.00;57768.22;4983204;28;2041;-70
2024/02/05 01:40:09;;;;;;;;;;;7.00;99.90;;;-146.41;100.00;57768.22;4982670;28;1444;-68
2024/02/05 01:42:41;;;;;;;;;;;7.00;99.90;;;-146.41;100.00;57768.22;4983179;28;1927;-68
2024/02/05 01:45:11;;;;;;;;;;;7.00;99.90;;;-146.41;100.00;57768.22;4979265;28;1485;-68
2024/02/05 01:47:38;;;;;;;;;;;7.00;99.90;;;-146.41;100.00;57768.22;4997958;28;1381;-68
2024/02/05 01:50:07;;;;;;;;;;;7.00;99.90;;;-146.41;100.00;57768.22;4981868;28;1802;-68
2024/02/05 01:52:38;;;;;;;;;;;7.00;99.90;;;-146.41;100.00;57768.22;4983664;28;3271;-68
2024/02/05 01:55:05;;;;;;;;;;;7.00;99.90;;;-146.41;100.00;57768.22;4996502;28;1471;-68
2024/02/05 01:57:33;;;;;;;;;;;7.00;99.90;;;-146.41;100.00;57768.22;4984207;28;1442;-68
2024/02/05 02:00:00;;;;;;;;;;;7.00;99.90;;;-146.41;100.00;57768.22;4998743;28;1334;-68
2024/02/05 02:02:27;;;;;;;;;;;6.90;99.90;;;-146.41;100.00;57768.22;4982895;28;2469;-68
2024/02/05 02:04:55;;;;;;;;;;;6.90;99.90;;;-146.41;100.00;57768.22;4981922;28;2632;-68
2024/02/05 02:07:22;;;;;;;;;;;6.90;99.90;;;-146.41;100.00;57768.22;4996568;28;1302;-68
2024/02/05 02:09:49;;;;;;;;;;;6.90;99.90;;;-146.41;100.00;57768.22;4998032;28;2022;-68
2024/02/05 02:12:16;;;;;;;;;;;6.90;99.90;;;-146.41;100.00;57768.22;4979670;28;1323;-68
2024/02/05 02:14:43;;;;;;;;;;;6.90;99.90;;;-146.41;100.00;57768.22;4984728;28;1412;-68
2024/02/05 02:17:10;;;;;;;;;;;6.90;99.90;;;-146.41;100.00;57768.22;4986121;28;1275;-68
2024/02/05 02:19:48;;;;;;;;;;;6.90;99.90;;;-146.41;100.00;57768.22;4987396;28;2152;-68
2024/02/05 02:22:38;;;;;;;;;;;7.00;99.90;;;-146.41;100.00;57768.22;4980744;28;1910;-69
2024/02/05 02:25:06;;;;;;;;;;;6.90;99.90;;;-146.41;100.00;57768.22;4982707;28;1418;-68
2024/02/05 02:27:33;;;;;;;;;;;6.90;99.90;;;-146.41;100.00;57768.22;4985862;28;1274;-68
2024/02/05 02:30:01;;;;;;;;;;;6.90;99.90;;;-146.41;100.00;57768.22;4983929;28;1858;-68
2024/02/05 02:32:48;;;;;;;;;;;6.90;99.90;;;-146.41;100.00;57768.22;4984068;28;1307;-68
2024/02/05 02:35:37;;;;;;;;;;;6.90;99.90;;;-146.41;100.00;57768.22;4999716;28;1421;-69
2024/02/05 02:38:17;;;;;;;;;;;6.90;99.90;;;-146.41;100.00;57768.22;4984297;28;1501;-69
2024/02/05 02:40:44;;;;;;;;;;;6.90;99.90;;;-146.41;100.00;57768.22;5014667;28;1267;-68
2024/02/05 02:43:12;;;;;;;;;;;6.90;99.90;;;-146.41;100.00;57768.22;4999622;28;1903;-69
2024/02/05 02:45:39;;;;;;;;;;;6.90;99.90;;;-146.41;100.00;57768.22;4995843;28;1307;-68
2024/02/05 02:48:06;;;;;;;;;;;6.90;99.90;;;-146.41;100.00;57768.22;4983239;28;2528;-68
2024/02/05 02:50:33;;;;;;;;;;;6.90;99.90;;;-146.41;100.00;57768.22;4979912;28;1398;-68
2024/02/05 02:53:00;;;;;;;;;;;6.90;99.90;;;-146.41;100.00;57768.22;4984480;28;1326;-68
2024/02/05 02:55:27;;;;;;;;;;;6.90;99.90;;;-146.41;100.00;57768.22;4985316;28;1352;-68
2024/02/05 02:57:54;;;;;;;;;;;6.90;99.90;;;-146.41;100.00;57768.22;4983880;28;1267;-68
2024/02/05 03:00:20;;;;;;;;;;;6.90;99.90;;;-146.41;100.00;57768.22;4982014;28;1243;-68
2024/02/05 03:02:47;;;;;;;;;;;6.90;99.90;;;-146.41;100.00;57768.22;4995880;28;2388;-68
2024/02/05 03:05:14;;;;;;;;;;;6.90;99.90;;;-146.41;100.00;57768.22;4986100;28;1406;-67
2024/02/05 03:07:41;;;;;;;;;;;6.90;99.90;;;-146.41;100.00;57768.22;4983750;28;1425;-68
2024/02/05 03:10:08;;;;;;;;;;;6.90;99.90;;;-146.41;100.00;57768.22;4980967;28;2850;-68
2024/02/05 03:12:35;;;;;;;;;;;6.90;99.90;;;-146.41;100.00;57768.22;4985064;28;3889;-68
2024/02/05 03:15:02;;;;;;;;;;;6.90;99.90;;;-146.41;100.00;57768.22;4982836;28;1279;-68
2024/02/05 03:17:29;;;;;;;;;;;6.90;99.90;;;-146.41;100.00;57768.22;4982280;28;1466;-68
2024/02/05 03:19:56;;;;;;;;;;;6.90;99.90;;;-146.41;100.00;57768.22;4983552;28;1314;-68
2024/02/05 03:22:23;;;;;;;;;;;7.00;99.90;;;-146.41;100.00;57768.22;4979303;28;1907;-69
2024/02/05 03:24:50;;;;;;;;;;;6.90;99.90;;;-146.41;100.00;57768.22;4983911;28;1330;-68
2024/02/05 03:27:17;;;;;;;;;;;6.90;99.90;;;-146.41;100.00;57768.22;4980962;28;2063;-68
2024/02/05 03:29:44;;;;;;;;;;;6.90;99.90;;;-146.41;100.00;57768.22;4982958;28;1263;-68
2024/02/05 03:32:10;;;;;;;;;;;6.90;99.90;;;-146.41;100.00;57768.22;4980762;28;1207;-69
2024/02/05 03:34:37;;;;;;;;;;;6.90;99.90;;;-146.41;100.00;57768.22;4982508;28;1520;-68
2024/02/05 03:37:04;;;;;;;;;;;6.90;99.90;;;-146.41;100.00;57768.22;4980677;28;1355;-68
2024/02/05 03:39:31;;;;;;;;;;;6.90;99.90;;;-146.41;100.00;57768.22;4984891;28;1612;-68
2024/02/05 03:41:58;;;;;;;;;;;6.90;99.90;;;-146.41;100.00;57768.22;4981409;28;2015;-68
2024/02/05 03:44:25;;;;;;;;;;;7.00;99.90;;;-146.41;100.00;57768.22;4981321;28;1447;-68
2024/02/05 03:46:52;;;;;;;;;;;6.90;99.90;;;-146.41;100.00;57768.22;4982401;28;1272;-68
2024/02/05 03:49:20;;;;;;;;;;;6.90;99.90;;;-146.41;100.00;57768.22;4980967;28;1282;-68
2024/02/05 03:51:47;;;;;;;;;;;6.90;99.90;;;-146.41;100.00;57768.22;4982391;28;1298;-68
2024/02/05 03:54:14;;;;;;;;;;;7.00;99.90;;;-146.41;100.00;57768.22;4983522;28;3347;-69
2024/02/05 03:56:42;;;;;;;;;;;7.00;99.90;;;-146.41;100.00;57768.22;4981420;28;1263;-68
2024/02/05 03:59:12;;;;;;;;;;;7.00;99.90;;;-146.41;100.00;57768.22;4979600;28;1244;-68
2024/02/05 04:01:41;;;;;;;;;;;7.00;99.90;;;-146.41;100.00;57768.22;4980422;28;2625;-69
2024/02/05 04:04:10;;;;;;;;;;;7.00;99.90;;;-146.41;100.00;57768.22;4979927;28;1449;-68
2024/02/05 04:06:38;;;;;;;;;;;7.00;99.90;;;-146.41;100.00;57768.22;4996997;28;1506;-68
2024/02/05 04:09:07;;;;;;;;;;;6.90;99.90;;;-146.41;100.00;57768.22;4980430;28;1329;-68
2024/02/05 04:11:34;;;;;;;;;;;6.90;99.90;;;-146.41;100.00;57768.22;4978798;28;1303;-68
2024/02/05 04:14:01;;;;;;;;;;;6.90;99.90;;;-146.41;100.00;57768.22;4983198;28;2006;-68
2024/02/05 04:16:28;;;;;;;;;;;7.00;99.90;;;-146.41;100.00;57768.22;4995247;28;1774;-68
2024/02/05 04:18:55;;;;;;;;;;;6.90;99.90;;;-146.41;100.00;57768.22;4982226;28;1395;-68
2024/02/05 04:21:24;;;;;;;;;;;6.90;99.90;;;-146.41;100.00;57768.22;4977897;28;1319;-68
2024/02/05 04:23:51;;;;;;;;;;;7.00;99.90;;;-146.41;100.00;57768.22;4979014;28;1910;-70
2024/02/05 04:26:18;;;;;;;;;;;7.00;99.90;;;-146.41;100.00;57768.22;4979842;28;1287;-68
2024/02/05 04:28:46;;;;;;;;;;;7.00;99.90;;;-146.41;100.00;57768.22;4979983;28;1943;-68
2024/02/05 04:31:12;;;;;;;;;;;7.00;99.90;;;-146.41;100.00;57768.22;4982651;28;1319;-68
2024/02/05 04:33:40;;;;;;;;;;;7.00;99.90;;;-146.41;100.00;57768.22;4977881;28;1295;-68
2024/02/05 04:36:13;;;;;;;;;;;7.00;99.90;;;-146.41;100.00;57768.22;4975458;28;1277;-68
2024/02/05 04:38:41;;;;;;;;;;;7.00;99.90;;;-146.41;100.00;57768.22;4982305;28;1545;-68
2024/02/05 04:41:10;;;;;;;;;;;7.00;99.90;;;-146.41;100.00;57768.22;4979667;28;1209;-68
2024/02/05 04:43:40;;;;;;;;;;;7.00;99.90;;;-146.41;100.00;57768.22;4983846;28;3316;-68
2024/02/05 04:46:08;;;;;;;;;;;7.00;99.90;;;-146.41;100.00;57768.22;4994082;28;1296;-68
2024/02/05 04:48:35;;;;;;;;;;;7.00;99.90;;;-146.41;100.00;57768.22;4977317;28;1186;-68
2024/02/05 04:51:02;;;;;;;;;;;7.00;99.90;;;-146.41;100.00;57768.22;4982834;28;1259;-68
2024/02/05 04:53:29;;;;;;;;;;;7.00;99.90;;;-146.41;100.00;57768.22;4982552;28;1305;-68
2024/02/05 04:55:56;;;;;;;;;;;7.00;99.90;;;-146.41;100.00;57768.22;4984237;28;1469;-68
2024/02/05 04:58:23;;;;;;;;;;;7.00;99.90;;;-146.41;100.00;57768.22;4980147;28;1314;-68
2024/02/05 05:00:49;;;;;;;;;;;7.00;99.90;;;-146.41;100.00;57768.22;4976546;28;1388;-69
2024/02/05 05:03:16;;;;;;;;;;;7.00;99.90;;;-146.41;100.00;57768.22;4993757;28;1974;-67
2024/02/05 05:05:43;;;;;;;;;;;7.00;99.90;;;-146.41;100.00;57768.22;4998768;28;2145;-69
2024/02/05 05:08:10;;;;;;;;;;;7.00;99.90;;;-146.41;100.00;57768.22;4984847;28;2178;-69
2024/02/05 05:10:37;;;;;;;;;;;7.00;99.90;;;-146.41;100.00;57768.22;4984117;28;2461;-69
2024/02/05 05:13:05;;;;;;;;;;;7.00;99.90;;;-146.41;100.00;57768.22;4984639;28;1166;-68
2024/02/05 05:15:32;;;;;;;;;;;7.00;99.90;;;-146.41;100.00;57768.22;4982446;28;1299;-68
2024/02/05 05:18:03;;;;;;;;;;;7.00;99.90;;;-146.41;100.00;57768.22;4983728;28;1275;-68
2024/02/05 05:20:30;;;;;;;;;;;7.10;99.90;;;-146.41;100.00;57768.22;4998172;28;1437;-68
2024/02/05 05:22:57;;;;;;;;;;;7.10;99.90;;;-146.41;100.00;57768.22;4984782;28;1987;-68
2024/02/05 05:25:24;;;;;;;;;;;7.10;99.90;;;-146.41;100.00;57768.22;4986229;28;3244;-68
2024/02/05 05:27:51;;;;;;;;;;;7.10;99.90;;;-146.41;100.00;57768.22;4983719;28;1255;-68
2024/02/05 05:30:18;;;;;;;;;;;7.10;99.90;;;-146.41;100.00;57768.22;4984218;28;1402;-68
2024/02/05 05:32:45;;;;;;;;;;;7.10;99.90;;;-146.41;100.00;57768.22;4983332;28;1421;-68
2024/02/05 05:35:12;;;;;;;;;;;7.10;99.90;;;-146.41;100.00;57768.22;4982896;28;1233;-68
2024/02/05 05:37:41;;;;;;;;;;;7.10;99.90;;;-146.41;100.00;57768.22;4983800;28;1420;-69
2024/02/05 05:40:08;;;;;;;;;;;7.10;99.90;;;-146.41;100.00;57768.22;5013299;28;1996;-68
2024/02/05 05:42:35;;;;;;;;;;;7.10;99.90;;;-146.41;100.00;57768.22;4983961;28;1900;-68
2024/02/05 05:45:03;;;;;;;;;;;7.10;99.90;;;-146.41;100.00;57768.22;4980997;28;1698;-68
2024/02/05 05:47:30;;;;;;;;;;;7.10;99.90;;;-146.41;100.00;57768.22;4983320;28;1495;-68
2024/02/05 05:50:00;;;;;;;;;;;7.00;99.90;;;-146.41;100.00;57768.22;4984781;28;1321;-68
2024/02/05 05:52:27;;;;;;;;;;;7.00;99.90;;;-146.41;100.00;57768.22;4982456;28;2178;-68
2024/02/05 05:54:54;;;;;;;;;;;7.10;99.90;;;-146.41;100.00;57768.22;4982207;28;1258;-68
2024/02/05 05:57:21;;;;;;;;;;;7.10;99.90;;;-146.41;100.00;57768.22;4985960;28;1535;-68
2024/02/05 05:59:49;;;;;;;;;;;7.00;99.90;;;-146.41;100.00;57768.22;4981709;28;2573;-69
2024/02/05 06:02:16;;;;;;;;;;;7.10;99.90;;;-146.41;100.00;57768.22;4983037;28;1946;-68
2024/02/05 06:04:43;;;;;;;;;;;7.10;99.90;;;-146.41;100.00;57768.22;4979242;28;3900;-68
2024/02/05 06:07:10;;;;;;;;;;;7.10;99.90;;;-146.41;100.00;57768.22;4981186;28;1460;-68
2024/02/05 06:09:38;;;;;;;;;;;7.10;99.90;;;-146.41;100.00;57768.22;5011894;28;1424;-68
2024/02/05 06:12:05;;;;;;;;;;;7.20;99.90;;;-146.41;100.00;57768.22;4997732;28;1347;-68
2024/02/05 06:14:32;;;;;;;;;;;7.20;99.90;;;-146.41;100.00;57768.22;4979568;28;1458;-67
2024/02/05 06:16:59;;;;;;;;;;;7.10;99.90;;;-146.41;100.00;57768.22;4980683;28;1281;-68
2024/02/05 06:19:26;;;;;;;;;;;7.10;99.90;;;-146.41;100.00;57768.22;4982269;28;2189;-68
2024/02/05 06:21:53;;;;;;;;;;;7.10;99.90;;;-146.41;100.00;57768.22;4982156;28;1856;-68
2024/02/05 06:24:20;;;;;;;;;;;7.10;99.90;;;-146.41;100.00;57768.22;4980772;28;1910;-68
2024/02/05 06:26:46;;;;;;;;;;;7.10;99.90;;;-146.41;100.00;57768.22;4980951;28;1228;-68
2024/02/05 06:29:13;;;;;;;;;;;7.10;99.90;;;-146.41;100.00;57768.22;4978630;28;1078;-68
2024/02/05 06:31:40;;;;;;;;;;;7.10;99.90;;;-146.41;100.00;57768.22;4978501;28;1242;-67
2024/02/05 06:34:07;;;;;;;;;;;7.10;99.90;;;-146.41;100.00;57768.22;4979579;28;2660;-68
2024/02/05 06:36:36;;;;;;;;;;;7.10;99.90;;;-146.41;100.00;57768.22;4982308;28;1786;-67
2024/02/05 06:39:03;;;;;;;;;;;7.20;99.90;;;-146.41;100.00;57768.22;4985055;28;1076;-68
2024/02/05 06:41:33;;;;;;;;;;;7.10;99.90;;;-146.41;100.00;57768.22;4981150;28;1262;-69
2024/02/05 06:44:00;;;;;;;;;;;7.20;99.90;;;-146.41;100.00;57768.22;4979757;28;1997;-68
2024/02/05 06:46:27;;;;;;;;;;;7.10;99.90;;;-146.41;100.00;57768.22;4978987;28;1050;-68
2024/02/05 06:48:54;;;;;;;;;;;7.20;99.90;;;-146.41;100.00;57768.22;4979203;28;3094;-68
2024/02/05 06:51:21;;;;;;;;;;;7.20;99.90;;;-146.41;100.00;57768.22;4982859;28;1365;-68
2024/02/05 06:53:48;;;;;;;;;;;7.20;99.90;;;-146.41;100.00;57768.22;4970492;28;1308;-68
2024/02/05 06:56:15;;;;;;;;;;;7.20;99.90;;;-146.41;100.00;57768.22;4983788;28;1125;-68
2024/02/05 06:58:42;;;;;;;;;;;7.20;99.90;;;-146.41;100.00;57768.22;4979027;28;1099;-68
2024/02/05 07:01:11;;;;;;;;;;;7.30;99.90;;;-146.41;100.00;57768.22;4982316;28;1289;-68
2024/02/05 07:03:38;;;;;;;;;;;7.20;99.90;;;-146.41;100.00;57768.22;4979313;28;1903;-68
2024/02/05 07:06:05;;;;;;;;;;;7.20;99.90;;;-146.41;100.00;57768.22;5012009;28;1379;-68
2024/02/05 07:08:32;;;;;;;;;;;7.30;99.90;;;-146.41;100.00;57768.22;4983478;28;2591;-68
2024/02/05 07:10:58;;;;;;;;;;;7.20;99.90;;;-146.41;100.00;57768.22;4978649;28;1119;-68
2024/02/05 07:13:25;;;;;;;;;;;7.30;99.90;;;-146.41;100.00;57768.22;4984254;28;1084;-68
2024/02/05 07:15:52;;;;;;;;;;;7.30;99.90;;;-146.41;100.00;57768.22;4979186;28;1443;-68
2024/02/05 07:18:19;;;;;;;;;;;7.30;99.90;;;-146.41;100.00;57768.22;4979698;28;1273;-68
2024/02/05 07:20:46;;;;;;;;;;;7.30;99.90;;;-146.41;100.00;57768.22;4981281;28;1286;-68
2024/02/05 07:23:13;;;;;;;;;;;7.40;99.90;;;-146.41;100.00;57768.22;4980721;28;1967;-67
2024/02/05 07:25:39;;;;;;;;;;;7.30;99.90;;;-146.41;100.00;57768.22;4978726;28;1487;-68
2024/02/05 07:28:07;;;;;;;;;;;7.30;99.90;;;-146.41;100.00;57768.22;4979879;28;1431;-67
2024/02/05 07:30:36;;;;;;;;;;;7.30;99.90;;;-146.41;100.00;57768.22;4979751;28;1343;-68
2024/02/05 07:33:03;;;;;;;;;;;7.40;99.90;;;-146.41;100.00;57768.22;4979416;28;1063;-67
2024/02/05 07:35:30;;;;;;;;;;;7.40;99.90;;;-146.41;100.00;57768.22;4977608;28;3201;-67
2024/02/05 07:37:57;;;;;;;;;;;7.40;99.90;;;-146.41;100.00;57768.22;4993012;28;1058;-68
2024/02/05 07:40:23;;;;;;;;;;;7.30;99.90;;;-146.41;100.00;57768.22;4976610;28;1051;-67
2024/02/05 07:42:51;;;;;;;;;;;7.30;99.90;;;-146.41;100.00;57768.22;4980487;28;1909;-68
2024/02/05 07:45:18;;;;;;;;;;;7.30;99.90;;;-146.41;100.00;57768.22;4977014;28;1460;-68
2024/02/05 07:47:44;;;;;;;;;;;7.30;99.90;;;-146.41;100.00;57768.22;4977050;28;1130;-68
2024/02/05 07:50:11;;;;;;;;;;;7.30;99.90;;;-146.41;100.00;57768.22;4980403;28;2392;-68
2024/02/05 07:52:38;;;;;;;;;;;7.30;99.90;;;-146.41;100.00;57768.22;4977460;28;1050;-67
2024/02/05 07:55:05;;;;;;;;;;;7.30;99.90;;;-146.41;100.00;57768.22;4979328;28;1416;-67
2024/02/05 07:57:35;;;;;;;;;;;7.30;99.90;;;-146.41;100.00;57768.22;4977709;28;1217;-67
2024/02/05 08:00:03;;;;;;;;;;;7.40;99.90;;;-146.41;100.00;57768.22;4980356;28;1991;-67
2024/02/05 08:02:29;;;;;;;;;;;7.40;99.90;;;-146.41;100.00;57768.22;4979722;28;1050;-68
2024/02/05 08:04:56;;;;;;;;;;;7.30;99.90;;;-146.41;100.00;57768.22;4978991;28;2623;-67
2024/02/05 08:07:24;;;;;;;;;;;7.40;99.90;;;-146.41;100.00;57768.22;4995038;28;1243;-67
2024/02/05 08:09:51;;;;;;;;;;;7.30;99.90;;;-146.41;100.00;57768.22;4978395;28;1039;-67
2024/02/05 08:12:18;;;;;;;;;;;7.40;99.90;;;-146.41;100.00;57768.22;4978442;28;1094;-68
2024/02/05 08:14:45;;;;;;;;;;;7.40;99.90;;;-146.41;100.00;57768.22;4979382;28;1380;-67
2024/02/05 08:17:12;;;;;;;;;;;7.30;99.90;;;-146.41;100.00;57768.22;4977444;28;1118;-67
2024/02/05 08:19:39;;;;;;;;;;;7.40;99.90;;;-146.41;100.00;57768.22;4979752;28;3588;-67
2024/02/05 08:22:06;;;;;;;;;;;7.40;99.90;;;-146.41;100.00;57768.22;4977555;28;1376;-67
2024/02/05 08:24:33;;;;;;;;;;;7.40;99.90;;;-146.41;100.00;57768.22;4979462;28;1987;-68
2024/02/05 08:27:00;;;;;;;;;;;7.40;99.90;;;-146.41;100.00;57768.22;4982436;28;1225;-68
2024/02/05 08:29:27;;;;;;;;;;;7.40;99.90;;;-146.41;100.00;57768.22;4978120;28;1083;-68
2024/02/05 08:31:55;;;;;;;;;;;7.40;99.90;;;-146.41;100.00;57768.22;4978402;28;1658;-67
2024/02/05 08:34:21;;;;;;;;;;;7.40;99.90;;;-146.41;100.00;57768.22;4979531;28;2460;-67
2024/02/05 08:36:48;;;;;;;;;;;7.40;99.90;;;-146.41;100.00;57768.22;4981564;28;1392;-68
2024/02/05 08:39:15;;;;;;;;;;;7.40;99.90;;;-146.41;100.00;57768.22;4996408;28;1341;-68
2024/02/05 08:41:42;;;;;;;;;;;7.40;99.90;;;-146.41;100.00;57768.22;4982894;28;1695;-67
2024/02/05 08:44:09;;;;;;;;;;;7.40;99.90;;;-146.41;100.00;57768.22;4982890;28;2005;-68
2024/02/05 08:46:35;;;;;;;;;;;7.30;99.90;;;-146.41;100.00;57768.22;4982540;28;1121;-68
2024/02/05 08:49:02;;;;;;;;;;;7.30;99.90;;;-146.41;100.00;57768.22;4983277;28;2024;-68
2024/02/05 08:51:30;;;;;;;;;;;7.40;99.90;;;-146.41;100.00;57768.22;4984567;28;1285;-69
2024/02/05 08:53:57;;;;;;;;;;;7.40;99.90;;;-146.41;100.00;57768.22;4979820;28;1422;-67
2024/02/05 08:56:24;;;;;;;;;;;7.40;99.90;;;-146.41;100.00;57768.22;4983033;28;1399;-67
2024/02/05 08:58:51;;;;;;;;;;;7.50;99.90;;;-146.41;100.00;57768.22;4981682;28;1138;-67
2024/02/05 09:01:18;;;;;;;;;;;7.50;99.90;;;-146.41;100.00;57768.22;4981578;28;1348;-67
2024/02/05 09:03:45;;;;;;;;;;;7.40;99.90;;;-146.41;100.00;57768.22;4981312;28;3284;-68
2024/02/05 09:06:12;;;;;;;;;;;7.50;99.90;;;-146.41;100.00;57768.22;4982134;28;1320;-68
2024/02/05 09:08:39;;;;;;;;;;;7.50;99.90;;;-146.41;100.00;57768.22;4984208;28;2676;-67
2024/02/05 09:11:06;;;;;;;;;;;7.50;99.90;;;-146.41;100.00;57768.22;4980989;28;2308;-68
2024/02/05 09:13:33;;;;;;;;;;;7.50;99.90;;;-146.41;100.00;57768.22;4981466;28;1109;-68
2024/02/05 09:16:00;;;;;;;;;;;7.50;99.90;;;-146.41;100.00;57768.22;4995731;28;1498;-67
2024/02/05 09:18:27;;;;;;;;;;;7.50;99.90;;;-146.41;100.00;57768.22;4982599;28;1289;-67
2024/02/05 09:20:54;;;;;;;;;;;7.60;99.90;;;-146.41;100.00;57768.22;4983156;28;1211;-67
2024/02/05 09:23:21;;;;;;;;;;;7.50;99.90;;;-146.41;100.00;57768.22;4982282;28;2003;-67
2024/02/05 09:25:48;;;;;;;;;;;7.50;99.90;;;-146.41;100.00;57768.22;4977625;28;2240;-67
2024/02/05 09:28:15;;;;;;;;;;;7.50;99.90;;;-146.41;100.00;57768.22;4980789;28;1138;-68
2024/02/05 09:30:42;;;;;;;;;;;7.50;99.90;;;-146.41;100.00;57768.22;4981825;28;1058;-68
2024/02/05 09:33:09;;;;;;;;;;;7.70;99.90;;;-146.41;100.00;57768.22;4980655;28;1398;-67
2024/02/05 09:35:36;;;;;;;;;;;7.70;99.90;;;-146.41;100.00;57768.22;4981407;28;2512;-68
2024/02/05 09:38:04;;;;;;;;;;;7.70;99.90;;;-146.41;100.00;57768.22;4981002;28;2846;-67
2024/02/05 09:40:34;;;;;;;;;;;7.60;99.90;;;-146.41;100.00;57768.22;4981331;28;1411;-68
2024/02/05 09:43:01;;;;;;;;;;;7.70;99.90;;;-146.41;100.00;57768.22;4996432;28;1146;-68
2024/02/05 09:45:30;;;;;;;;;;;7.60;99.90;;;-146.41;100.00;57768.22;4980552;28;1898;-67
2024/02/05 09:47:58;;;;;;;;;;;7.70;99.90;;;-146.41;100.00;57768.22;4979912;28;1268;-67
2024/02/05 09:50:26;;;;;;;;;;;7.70;99.90;;;-146.41;100.00;57768.22;4979708;28;1118;-67
2024/02/05 09:52:54;;;;;;;;;;;7.70;99.90;;;-146.41;100.00;57768.22;4979869;28;3327;-66
2024/02/05 09:55:23;;;;;;;;;;;7.70;99.90;;;-146.41;100.00;57768.22;4981591;28;1308;-67
2024/02/05 09:57:52;;;;;;;;;;;7.60;99.90;;;-146.41;100.00;57768.22;4979642;28;1172;-67
2024/02/05 10:00:19;;;;;;;;;;;7.70;99.90;;;-146.41;100.00;57768.22;4981749;28;1101;-67
2024/02/05 10:02:46;;;;;;;;;;;7.70;99.90;;;-146.41;100.00;57768.22;4981961;28;1520;-68
2024/02/05 10:05:17;;;;;;;;;;;7.70;99.90;;;-146.41;100.00;57768.22;4997464;28;2448;-68
2024/02/05 10:07:50;;;;;;;;;;;7.80;99.90;;;-146.41;100.00;57768.22;4978798;28;1143;-68
2024/02/05 10:10:17;;;;;;;;;;;7.80;99.90;;;-146.41;100.00;57768.22;4980390;28;1070;-67
2024/02/05 10:12:45;;;;;;;;;;;7.80;99.90;;;-146.41;100.00;57768.22;4980070;28;1213;-68
2024/02/05 10:15:13;;;;;;;;;;;7.90;99.90;;;-146.41;100.00;57768.22;4980335;28;1627;-67
2024/02/05 10:17:40;;;;;;;;;;;7.90;99.90;;;-146.41;100.00;57768.22;4978611;28;1318;-67
2024/02/05 10:20:09;;;;;;;;;;;7.80;99.90;;;-146.41;100.00;57768.22;4981445;28;1911;-67
2024/02/05 10:22:44;;;;;;;;;;;7.90;99.90;;;-146.41;100.00;57768.22;4981175;28;1112;-68
2024/02/05 10:25:12;;;;;;;;;;;8.00;99.90;;;-146.41;100.00;57768.22;4983900;28;1902;-67
2024/02/05 10:27:40;;;;;;;;;;;8.00;99.90;;;-146.41;100.00;57768.22;4978268;28;1418;-67
2024/02/05 10:30:08;;;;;;;;;;;8.00;99.90;;;-146.41;100.00;57768.22;4972910;28;1251;-68
2024/02/05 10:32:35;;;;;;;;;;;8.00;99.90;;;-146.41;100.00;57768.22;4956396;28;1344;-68
2024/02/05 10:35:02;;;;;;;;;;;8.00;99.90;;;-146.41;100.00;57768.22;4986973;28;3030;-69
2024/02/05 10:37:30;;;;;;;;;;;8.00;99.90;;;-146.41;100.00;57768.22;4974698;28;1272;-68
2024/02/05 10:40:09;;;;;;;;;;;8.00;99.90;;;-146.41;100.00;57768.22;4973630;28;1287;-68
2024/02/05 10:42:36;;;;;;;;;;;8.00;99.90;;;-146.41;100.00;57768.22;4978774;28;1404;-68
2024/02/05 10:45:04;;;;;;;;;;;8.10;99.90;;;-146.41;100.00;57768.22;4979806;28;1985;-69
2024/02/05 10:47:31;;;;;;;;;;;8.10;99.90;;;-146.41;100.00;57768.22;4995984;28;2101;-68
2024/02/05 10:49:59;;;;;;;;;;;8.20;99.90;;;-146.41;100.00;57768.22;4981662;28;2555;-67
2024/02/05 10:52:26;;;;;;;;;;;8.20;99.90;;;-146.41;100.00;57768.22;4980405;28;2739;-67
2024/02/05 10:54:55;;;;;;;;;;;8.30;99.90;;;-146.41;100.00;57768.22;4978732;28;1395;-67
2024/02/05 10:57:24;;;;;;;;;;;8.30;99.90;;;-146.41;100.00;57768.22;4980714;28;1340;-67
2024/02/05 10:59:54;;;;;;;;;;;8.40;99.90;;;-146.41;100.00;57768.22;4995255;28;1185;-68
2024/02/05 11:02:29;;;;;;;;;;;8.40;99.90;;;-146.41;100.00;57768.22;4980105;28;1510;-67
2024/02/05 11:04:56;;;;;;;;;;;8.20;99.90;;;-146.41;100.00;57768.22;4980099;28;1955;-66
2024/02/05 11:07:25;;;;;;;;;;;8.40;99.90;;;-146.41;100.00;57768.22;4979453;28;1292;-67
2024/02/05 11:09:53;;;;;;;;;;;8.40;99.90;;;-146.41;100.00;57768.22;4978679;28;2584;-67
2024/02/05 11:12:22;;;;;;;;;;;8.40;99.90;;;-146.41;100.00;57768.22;4979733;28;1360;-67